Time;durP1;ratioP1;P1;durP2;ratioP2;P2;SDS_P1;SDS_P2;PMS_P1;PMS_P2;Temp;Humidity;BMP_temperature;BMP_pressure;BME280_temperature;BME280_humidity;BME280_pressure;Samples;Min_cycle;Max_cycle;Signal;HPM_P1;HPM_P2
2021/01/30 00:00:17;;;;;;;5.43;4.38;;;4.10;87.80;;;;;;5093684;28;20043;-65
2021/01/30 00:02:42;;;;;;;5.68;4.72;;;4.00;87.10;;;;;;5115359;28;20016;-65
2021/01/30 00:05:08;;;;;;;5.03;4.38;;;4.10;87.70;;;;;;5115336;28;20050;-65
2021/01/30 00:07:34;;;;;;;6.45;5.63;;;4.10;87.40;;;;;;5115773;28;20043;-65
2021/01/30 00:10:00;;;;;;;6.20;5.20;;;4.10;87.80;;;;;;5097781;28;20120;-65
2021/01/30 00:12:25;;;;;;;7.63;5.43;;;4.10;87.50;;;;;;5115218;28;20601;-65
2021/01/30 00:14:53;;;;;;;7.43;6.20;;;4.10;88.60;;;;;;5116088;28;20027;-65
2021/01/30 00:17:20;;;;;;;7.28;6.53;;;4.10;87.30;;;;;;5115776;28;20020;-65
2021/01/30 00:19:46;;;;;;;8.55;7.45;;;3.90;87.30;;;;;;5115109;28;20042;-65
2021/01/30 00:22:17;;;;;;;8.07;7.03;;;3.90;88.20;;;;;;5115868;28;20020;-65
2021/01/30 00:24:44;;;;;;;9.68;7.78;;;3.90;88.60;;;;;;5115862;28;20558;-65
2021/01/30 00:27:15;;;;;;;8.55;7.75;;;3.90;88.90;;;;;;5115126;28;20167;-65
2021/01/30 00:29:41;;;;;;;7.78;6.95;;;4.00;88.70;;;;;;5115373;28;20020;-65
2021/01/30 00:32:08;;;;;;;9.77;8.40;;;3.90;88.70;;;;;;5115776;28;20039;-65
2021/01/30 00:34:35;;;;;;;10.13;9.13;;;3.80;88.70;;;;;;5096493;28;20460;-65
2021/01/30 00:37:11;;;;;;;9.43;8.52;;;3.70;88.70;;;;;;5115551;28;20020;-65
2021/01/30 00:39:38;;;;;;;11.60;9.35;;;3.70;89.20;;;;;;5114855;28;20545;-65
2021/01/30 00:42:06;;;;;;;10.05;9.02;;;3.70;89.70;;;;;;5114817;28;20475;-65
2021/01/30 00:44:31;;;;;;;11.48;10.38;;;3.70;89.60;;;;;;5115230;28;20028;-65
2021/01/30 00:46:58;;;;;;;11.70;10.10;;;3.70;89.40;;;;;;5115551;28;20030;-65
2021/01/30 00:49:24;;;;;;;12.10;10.85;;;3.70;89.50;;;;;;5114513;28;20027;-65
2021/01/30 00:51:50;;;;;;;11.90;10.43;;;3.70;89.70;;;;;;5115357;28;20035;-65
2021/01/30 00:54:16;;;;;;;13.98;10.88;;;3.70;89.70;;;;;;5112794;28;20020;-65
2021/01/30 00:56:41;;;;;;;13.43;12.02;;;3.70;89.90;;;;;;5114957;28;20030;-65
2021/01/30 00:59:07;;;;;;;12.35;11.05;;;3.80;89.90;;;;;;5096732;28;20035;-65
2021/01/30 01:01:40;;;;;;;14.02;12.38;;;3.70;89.80;;;;;;5114166;28;20100;-65
2021/01/30 01:04:05;;;;;;;13.82;12.52;;;3.70;89.80;;;;;;5115169;28;20122;-65
2021/01/30 01:06:32;;;;;;;13.98;12.45;;;3.70;90.10;;;;;;5114136;28;20061;-65
2021/01/30 01:08:57;;;;;;;14.77;13.38;;;3.70;90.10;;;;;;5114925;28;20517;-64
2021/01/30 01:11:23;;;;;;;15.93;14.40;;;3.70;90.00;;;;;;5114789;28;20024;-65
2021/01/30 01:13:49;;;;;;;17.00;15.35;;;3.60;89.90;;;;;;5114116;28;20256;-66
2021/01/30 01:16:15;;;;;;;16.30;14.75;;;3.50;89.90;;;;;;5114866;28;20069;-65
2021/01/30 01:18:40;;;;;;;17.48;15.77;;;3.40;90.00;;;;;;5114387;28;20042;-65
2021/01/30 01:21:06;;;;;;;16.45;14.88;;;3.20;90.10;;;;;;5114247;28;20020;-65
2021/01/30 01:23:31;;;;;;;16.50;14.90;;;3.20;90.30;;;;;;5114320;28;20080;-65
2021/01/30 01:25:57;;;;;;;16.83;14.98;;;3.20;90.40;;;;;;5114848;28;20024;-65
2021/01/30 01:28:22;;;;;;;16.60;14.93;;;3.20;90.40;;;;;;5113408;28;20036;-65
2021/01/30 01:30:48;;;;;;;16.27;14.68;;;3.20;90.10;;;;;;5114707;28;20068;-64
2021/01/30 01:33:13;;;;;;;16.58;14.98;;;3.10;90.20;;;;;;5114570;28;20028;-65
2021/01/30 01:35:39;;;;;;;15.93;14.23;;;3.10;90.10;;;;;;5113479;28;20094;-65
2021/01/30 01:38:04;;;;;;;16.52;14.82;;;3.00;90.10;;;;;;5114190;28;20043;-65
2021/01/30 01:40:37;;;;;;;14.10;12.70;;;3.00;90.40;;;;;;5114025;28;20050;-65
2021/01/30 01:43:17;;;;;;;14.98;13.48;;;2.90;90.30;;;;;;5113590;28;20475;-65
2021/01/30 01:45:46;;;;;;;14.38;12.85;;;2.90;90.10;;;;;;5114403;28;20026;-65
2021/01/30 01:48:26;;;;;;;13.50;12.10;;;2.90;90.20;;;;;;5114291;28;20076;-65
2021/01/30 01:50:52;;;;;;;11.38;10.25;;;2.90;90.10;;;;;;5113377;28;20023;-65
2021/01/30 01:53:24;;;;;;;12.13;10.98;;;2.90;90.00;;;;;;5113880;28;20471;-65
2021/01/30 01:55:58;;;;;;;11.13;10.13;;;2.90;89.90;;;;;;5113605;28;20427;-65
2021/01/30 01:58:25;;;;;;;10.77;9.77;;;2.80;89.50;;;;;;5113592;28;20073;-66
2021/01/30 02:00:53;;;;;;;10.60;9.60;;;2.80;89.40;;;;;;5113909;28;20452;-65
2021/01/30 02:03:19;;;;;;;10.93;9.85;;;2.80;89.00;;;;;;5094576;28;20066;-64
2021/01/30 02:05:45;;;;;;;10.43;9.43;;;2.70;89.50;;;;;;5113860;28;20068;-65
2021/01/30 02:08:14;;;;;;;10.38;9.30;;;2.80;89.80;;;;;;5095438;28;20008;-65
2021/01/30 02:10:42;;;;;;;9.57;8.57;;;2.80;89.30;;;;;;5112812;28;20035;-65
2021/01/30 02:13:13;;;;;;;9.25;8.43;;;2.90;89.30;;;;;;5113703;28;20456;-65
2021/01/30 02:15:42;;;;;;;9.43;8.57;;;2.90;88.70;;;;;;5113511;28;20015;-65
2021/01/30 02:18:36;;;;;;;10.23;9.23;;;2.90;88.00;;;;;;5112791;28;20050;-65
2021/01/30 02:21:07;;;;;;;8.90;8.07;;;2.80;88.10;;;;;;5113657;28;20034;-65
2021/01/30 02:23:38;;;;;;;10.02;9.05;;;2.80;88.20;;;;;;5113469;28;20091;-65
2021/01/30 02:26:22;;;;;;;9.35;8.55;;;2.70;87.80;;;;;;5112575;28;20028;-66
2021/01/30 02:29:15;;;;;;;10.00;8.15;;;2.70;88.30;;;;;;5113567;28;20086;-65
2021/01/30 02:31:44;;;;;;;9.60;8.60;;;2.70;88.00;;;;;;5112461;28;20062;-65
2021/01/30 02:34:27;;;;;;;9.32;8.43;;;2.60;87.80;;;;;;5113471;28;20027;-66
2021/01/30 02:36:57;;;;;;;10.20;9.20;;;2.60;88.50;;;;;;5113677;28;20460;-65
2021/01/30 02:39:47;;;;;;;9.98;9.00;;;2.60;88.60;;;;;;5090598;28;20056;-66
2021/01/30 02:42:30;;;;;;;9.23;8.35;;;2.60;88.40;;;;;;5093039;28;20049;-65
2021/01/30 02:45:08;;;;;;;9.48;8.40;;;2.70;88.80;;;;;;5092294;28;20542;-65
2021/01/30 02:47:38;;;;;;;12.00;9.38;;;2.70;88.50;;;;;;5092504;28;20024;-65
2021/01/30 02:50:26;;;;;;;9.50;8.60;;;2.70;88.20;;;;;;5092726;28;20368;-65
2021/01/30 02:52:56;;;;;;;9.15;8.25;;;2.60;87.50;;;;;;5091552;28;20058;-65
2021/01/30 02:55:25;;;;;;;10.18;9.18;;;2.60;87.60;;;;;;5092707;28;20028;-65
2021/01/30 02:57:52;;;;;;;10.50;9.40;;;2.60;88.10;;;;;;5092876;28;20110;-64
2021/01/30 03:00:22;;;;;;;9.57;8.57;;;2.60;88.50;;;;;;5090773;28;20024;-64
2021/01/30 03:02:48;;;;;;;9.00;8.10;;;2.70;88.80;;;;;;5091623;28;20023;-65
2021/01/30 03:05:14;;;;;;;9.80;8.80;;;2.80;88.80;;;;;;5092766;28;20395;-65
2021/01/30 03:08:03;;;;;;;8.70;7.88;;;2.80;88.20;;;;;;5091770;28;20028;-65
2021/01/30 03:11:02;;;;;;;9.07;8.18;;;2.80;87.70;;;;;;5092746;28;20020;-65
2021/01/30 03:13:41;;;;;;;9.80;8.10;;;2.70;87.80;;;;;;5088690;28;20170;-65
2021/01/30 03:16:11;;;;;;;8.23;7.43;;;2.80;88.20;;;;;;5092802;28;20067;-65
2021/01/30 03:18:43;;;;;;;8.68;7.85;;;2.80;88.20;;;;;;5092305;28;20221;-65
2021/01/30 03:21:13;;;;;;;8.15;7.05;;;2.80;88.00;;;;;;5091998;28;20055;-65
2021/01/30 03:23:38;;;;;;;7.47;6.78;;;2.80;87.10;;;;;;5092327;28;20028;-65
2021/01/30 03:26:10;;;;;;;7.28;6.43;;;2.80;87.10;;;;;;5092716;28;20479;-65
2021/01/30 03:28:35;;;;;;;8.38;6.50;;;2.80;86.40;;;;;;5091660;28;20103;-65
2021/01/30 03:31:01;;;;;;;7.10;6.40;;;2.80;87.20;;;;;;5091249;28;20111;-65
2021/01/30 03:33:27;;;;;;;8.25;7.05;;;2.80;87.50;;;;;;5092287;28;20043;-65
2021/01/30 03:35:53;;;;;;;7.95;7.05;;;2.90;87.50;;;;;;5091799;28;20104;-66
2021/01/30 03:38:19;;;;;;;9.13;7.22;;;2.90;87.20;;;;;;5102591;28;20476;-65
2021/01/30 03:40:44;;;;;;;8.65;6.57;;;2.90;87.40;;;;;;5116586;28;20106;-65
2021/01/30 03:43:11;;;;;;;7.80;7.00;;;2.90;86.70;;;;;;5116203;28;20115;-65
2021/01/30 03:45:36;;;;;;;8.05;7.25;;;2.70;86.60;;;;;;5116538;28;20095;-65
2021/01/30 03:48:03;;;;;;;8.07;6.90;;;2.60;87.10;;;;;;5116547;28;20102;-65
2021/01/30 03:50:29;;;;;;;6.97;6.30;;;2.70;87.60;;;;;;5115566;28;20043;-65
2021/01/30 03:52:55;;;;;;;7.10;6.40;;;2.70;87.80;;;;;;5098122;28;20102;-65
2021/01/30 03:55:21;;;;;;;6.85;6.15;;;2.70;87.80;;;;;;5115478;28;20115;-65
2021/01/30 03:57:47;;;;;;;7.20;6.43;;;2.70;87.40;;;;;;5116366;28;20028;-65
2021/01/30 04:00:16;;;;;;;7.38;6.22;;;2.70;87.60;;;;;;5097953;28;20031;-65
2021/01/30 04:02:41;;;;;;;6.38;5.78;;;2.70;87.60;;;;;;5115577;28;20087;-65
2021/01/30 04:05:10;;;;;;;6.25;5.65;;;2.80;87.50;;;;;;5116179;28;20056;-65
2021/01/30 04:07:36;;;;;;;6.10;5.50;;;2.80;87.50;;;;;;5115692;28;20106;-65
2021/01/30 04:10:06;;;;;;;7.07;6.13;;;2.80;87.80;;;;;;5115520;28;20062;-65
2021/01/30 04:12:33;;;;;;;6.68;6.07;;;2.80;87.50;;;;;;5115700;28;20023;-66
2021/01/30 04:14:59;;;;;;;7.63;6.93;;;2.80;87.00;;;;;;5116257;28;20023;-65
2021/01/30 04:17:25;;;;;;;7.38;6.15;;;2.80;87.40;;;;;;5096743;28;20027;-65
2021/01/30 04:19:50;;;;;;;7.18;5.55;;;2.80;87.70;;;;;;5115885;28;20127;-65
2021/01/30 04:22:16;;;;;;;7.18;6.18;;;2.80;87.30;;;;;;5116032;28;20020;-65
2021/01/30 04:24:44;;;;;;;6.18;5.57;;;2.80;87.30;;;;;;5114878;28;20058;-65
2021/01/30 04:27:11;;;;;;;6.93;6.10;;;2.80;87.00;;;;;;5115872;28;20020;-65
2021/01/30 04:29:36;;;;;;;5.80;5.30;;;2.80;87.10;;;;;;5097130;28;20020;-64
2021/01/30 04:32:02;;;;;;;5.35;4.85;;;2.70;87.40;;;;;;5096833;28;20035;-65
2021/01/30 04:34:27;;;;;;;5.57;4.65;;;2.70;87.40;;;;;;5115442;28;20102;-65
2021/01/30 04:36:53;;;;;;;5.72;5.03;;;2.50;87.20;;;;;;5115631;28;20403;-65
2021/01/30 04:39:18;;;;;;;5.47;4.88;;;2.40;87.70;;;;;;5114386;28;20396;-65
2021/01/30 04:41:59;;;;;;;4.63;4.22;;;2.30;87.90;;;;;;5115463;28;20023;-65
2021/01/30 04:44:49;;;;;;;5.10;4.60;;;2.20;88.30;;;;;;5115303;28;20027;-65
2021/01/30 04:47:42;;;;;;;4.65;4.25;;;2.10;88.80;;;;;;5115217;28;20027;-65
2021/01/30 04:50:43;;;;;;;4.63;4.10;;;2.00;89.30;;;;;;5115394;28;20483;-65
2021/01/30 04:53:23;;;;;;;4.55;4.03;;;2.00;89.30;;;;;;5096360;28;20111;-65
2021/01/30 04:56:06;;;;;;;4.43;4.03;;;1.90;89.60;;;;;;5115337;28;20031;-65
2021/01/30 04:58:55;;;;;;;5.20;4.60;;;1.90;90.00;;;;;;5114327;28;20038;-64
2021/01/30 05:01:48;;;;;;;4.95;4.47;;;1.90;90.10;;;;;;5114851;28;20031;-65
2021/01/30 05:04:22;;;;;;;6.55;4.40;;;1.80;90.10;;;;;;5115069;28;20023;-65
2021/01/30 05:07:04;;;;;;;4.97;4.38;;;1.80;90.20;;;;;;5114787;28;20026;-66
2021/01/30 05:09:55;;;;;;;5.13;4.20;;;1.70;90.20;;;;;;5114686;28;20452;-65
2021/01/30 05:12:51;;;;;;;6.78;4.68;;;1.70;90.20;;;;;;5114552;28;20395;-66
2021/01/30 05:15:39;;;;;;;5.22;4.30;;;1.70;90.20;;;;;;5115235;28;20020;-65
2021/01/30 05:18:12;;;;;;;5.35;4.85;;;1.70;90.00;;;;;;5114883;28;20031;-65
2021/01/30 05:20:43;;;;;;;6.25;4.88;;;1.70;89.80;;;;;;5108548;28;20076;-65
2021/01/30 05:23:11;;;;;;;5.43;4.35;;;1.60;90.00;;;;;;5114680;28;20452;-65
2021/01/30 05:25:37;;;;;;;5.25;4.75;;;1.60;90.00;;;;;;5113971;28;20027;-65
2021/01/30 05:28:17;;;;;;;5.10;4.53;;;1.60;90.10;;;;;;5113937;28;20028;-65
2021/01/30 05:30:54;;;;;;;6.32;5.07;;;1.70;90.20;;;;;;5114670;28;20460;-65
2021/01/30 05:33:38;;;;;;;6.22;5.60;;;1.70;90.30;;;;;;5114228;28;20038;-65
2021/01/30 05:36:12;;;;;;;6.25;5.22;;;1.80;90.40;;;;;;5095659;28;20028;-65
2021/01/30 05:38:57;;;;;;;5.22;4.70;;;1.90;90.40;;;;;;5114161;28;20036;-66
2021/01/30 05:41:34;;;;;;;5.53;4.95;;;2.10;90.40;;;;;;5113401;28;20475;-65
2021/01/30 05:44:21;;;;;;;5.28;4.78;;;2.20;90.40;;;;;;5114332;28;20062;-66
2021/01/30 05:46:50;;;;;;;6.30;5.10;;;2.30;90.30;;;;;;5114427;28;20057;-65
2021/01/30 05:49:19;;;;;;;5.28;4.78;;;2.30;90.10;;;;;;5113433;28;20027;-66
2021/01/30 05:51:47;;;;;;;5.53;5.03;;;2.40;90.10;;;;;;5114224;28;20048;-65
2021/01/30 05:54:13;;;;;;;7.60;6.00;;;2.40;89.70;;;;;;5114226;28;20032;-65
2021/01/30 05:56:39;;;;;;;5.32;4.70;;;2.40;89.50;;;;;;5113130;28;20069;-66
2021/01/30 05:59:09;;;;;;;5.60;5.10;;;2.40;89.40;;;;;;5113171;28;20384;-66
2021/01/30 06:01:34;;;;;;;5.82;4.88;;;2.40;88.70;;;;;;5113838;28;20030;-66
2021/01/30 06:04:09;;;;;;;4.93;4.47;;;2.40;89.00;;;;;;5113226;28;20418;-66
2021/01/30 06:06:38;;;;;;;5.15;4.65;;;2.30;88.40;;;;;;5113607;28;20032;-66
2021/01/30 06:09:32;;;;;;;4.63;4.22;;;2.30;88.40;;;;;;5113078;28;20016;-65
2021/01/30 06:12:02;;;;;;;6.30;4.85;;;2.30;88.70;;;;;;5104324;28;20027;-65
2021/01/30 06:14:37;;;;;;;5.93;4.85;;;2.30;88.90;;;;;;5113484;28;20027;-66
2021/01/30 06:17:13;;;;;;;5.95;5.22;;;2.40;88.60;;;;;;5112985;28;20069;-65
2021/01/30 06:19:38;;;;;;;5.85;4.90;;;2.50;88.80;;;;;;5095182;28;20027;-65
2021/01/30 06:22:12;;;;;;;6.45;5.55;;;2.50;88.80;;;;;;5113907;28;20027;-65
2021/01/30 06:24:44;;;;;;;5.68;4.97;;;2.60;88.80;;;;;;5112828;28;20080;-65
2021/01/30 06:27:18;;;;;;;5.57;5.00;;;2.60;88.30;;;;;;5113904;28;20084;-65
2021/01/30 06:29:50;;;;;;;6.00;5.15;;;2.60;88.10;;;;;;5113381;28;20045;-66
2021/01/30 06:32:19;;;;;;;7.28;6.03;;;2.60;88.10;;;;;;5112854;28;20051;-66
2021/01/30 06:34:47;;;;;;;6.57;5.85;;;2.60;88.30;;;;;;5113457;28;20023;-66
2021/01/30 06:37:34;;;;;;;6.85;5.25;;;2.70;88.60;;;;;;5112893;28;20459;-65
2021/01/30 06:40:31;;;;;;;6.60;6.00;;;2.70;88.30;;;;;;5113482;28;20110;-66
2021/01/30 06:43:15;;;;;;;7.68;5.03;;;2.70;88.60;;;;;;5078124;28;20043;-65
2021/01/30 06:45:43;;;;;;;6.47;5.75;;;2.70;88.60;;;;;;5112438;28;20019;-66
2021/01/30 06:48:25;;;;;;;6.28;5.68;;;2.70;88.00;;;;;;5113416;28;20016;-65
2021/01/30 06:50:50;;;;;;;;;;;2.70;88.40;;;;;;5113550;28;20050;-65
2021/01/30 06:53:28;;;;;;;6.70;5.63;;;2.80;88.60;;;;;;5112323;28;19958;-65
2021/01/30 06:55:54;;;;;;;6.03;5.25;;;2.70;88.00;;;;;;5113214;28;20015;-65
2021/01/30 06:58:28;;;;;;;6.30;5.70;;;2.70;88.10;;;;;;5112153;28;20511;-65
2021/01/30 07:01:07;;;;;;;5.82;5.30;;;2.70;88.30;;;;;;5113231;28;20016;-65
2021/01/30 07:04:06;;;;;;;6.78;5.63;;;2.70;88.50;;;;;;5112920;28;20028;-64
2021/01/30 07:06:54;;;;;;;5.88;5.15;;;2.80;88.20;;;;;;5112243;28;20036;-65
2021/01/30 07:09:31;;;;;;;8.32;5.82;;;2.70;87.90;;;;;;5112845;28;20364;-65
2021/01/30 07:12:16;;;;;;;6.50;5.45;;;2.80;88.10;;;;;;5116279;28;20106;-65
2021/01/30 07:15:08;;;;;;;6.75;5.88;;;2.80;88.10;;;;;;5117022;28;20028;-65
2021/01/30 07:17:52;;;;;;;6.03;5.40;;;2.80;88.00;;;;;;5116833;28;20038;-65
2021/01/30 07:20:46;;;;;;;6.65;5.95;;;2.80;88.20;;;;;;5116033;28;20093;-65
2021/01/30 07:23:16;;;;;;;7.10;5.95;;;2.80;88.30;;;;;;5117055;28;20031;-65
2021/01/30 07:26:04;;;;;;;6.13;5.53;;;2.80;88.60;;;;;;5116900;28;20027;-65
2021/01/30 07:28:40;;;;;;;6.85;6.25;;;2.80;88.50;;;;;;5115906;28;20019;-65
2021/01/30 07:31:24;;;;;;;8.75;5.55;;;2.80;87.70;;;;;;5114652;28;20361;-64
2021/01/30 07:33:59;;;;;;;9.63;6.55;;;2.70;87.70;;;;;;5104032;28;20024;-65
2021/01/30 07:36:33;;;;;;;6.03;5.32;;;2.70;87.80;;;;;;5103497;28;20016;-65
2021/01/30 07:39:11;;;;;;;7.97;5.70;;;2.60;87.90;;;;;;5103617;28;20131;-64
2021/01/30 07:41:48;;;;;;;6.30;5.70;;;2.70;88.10;;;;;;5107939;28;20399;-64
2021/01/30 07:44:39;;;;;;;5.50;4.97;;;2.60;87.50;;;;;;5096292;28;20084;-65
2021/01/30 07:47:17;;;;;;;7.80;5.82;;;2.60;87.10;;;;;;5108936;28;20102;-65
2021/01/30 07:49:48;;;;;;;6.35;5.47;;;2.60;86.80;;;;;;5095637;28;20047;-65
2021/01/30 07:52:20;;;;;;;5.95;5.35;;;2.60;87.10;;;;;;5110653;28;20031;-65
2021/01/30 07:54:52;;;;;;;6.57;5.72;;;2.60;87.10;;;;;;5115779;28;20098;-65
2021/01/30 07:57:29;;;;;;;5.97;5.13;;;2.60;87.30;;;;;;5097652;28;20020;-63
2021/01/30 08:00:08;;;;;;;6.40;5.80;;;2.60;87.40;;;;;;5114463;28;20498;-65
2021/01/30 08:02:51;;;;;;;5.93;5.32;;;2.70;87.60;;;;;;5106067;28;20521;-65
2021/01/30 08:05:35;;;;;;;8.38;5.97;;;2.70;87.30;;;;;;5077600;28;20024;-65
2021/01/30 08:08:08;;;;;;;6.70;5.70;;;2.70;87.30;;;;;;5114134;28;20026;-65
2021/01/30 08:10:57;;;;;;;7.22;6.07;;;2.80;87.50;;;;;;5097232;28;20020;-65
2021/01/30 08:13:50;;;;;;;7.10;5.88;;;2.80;87.70;;;;;;5115736;28;20103;-66
2021/01/30 08:16:39;;;;;;;7.00;6.00;;;2.80;87.50;;;;;;5096317;28;20462;-66
2021/01/30 08:19:16;;;;;;;7.32;6.15;;;2.80;87.40;;;;;;5090550;28;20530;-64
2021/01/30 08:21:52;;;;;;;7.57;6.40;;;2.90;87.00;;;;;;5094970;28;20031;-65
2021/01/30 08:24:30;;;;;;;12.77;6.35;;;2.90;87.40;;;;;;5094433;28;20024;-62
2021/01/30 08:26:58;;;;;;;6.70;6.05;;;2.90;87.10;;;;;;5095690;28;20093;-62
2021/01/30 08:29:48;;;;;;;8.52;6.72;;;2.90;87.20;;;;;;5096069;28;20031;-64
2021/01/30 08:32:26;;;;;;;6.93;6.22;;;2.90;87.00;;;;;;5095443;28;20024;-64
2021/01/30 08:34:53;;;;;;;7.20;6.50;;;2.90;86.90;;;;;;5110196;28;20076;-64
2021/01/30 08:37:36;;;;;;;6.57;5.88;;;2.90;86.90;;;;;;5095788;28;20460;-63
2021/01/30 08:40:03;;;;;;;8.30;7.45;;;3.00;86.90;;;;;;5082137;28;20028;-63
2021/01/30 08:42:30;;;;;;;7.00;6.30;;;3.00;87.00;;;;;;5101988;28;20162;-64
2021/01/30 08:45:08;;;;;;;8.85;7.18;;;3.10;87.00;;;;;;5096882;28;20024;-64
2021/01/30 08:47:52;;;;;;;8.07;6.72;;;3.20;86.40;;;;;;5103340;28;20016;-64
2021/01/30 08:50:30;;;;;;;7.72;6.93;;;3.20;86.30;;;;;;5115180;28;20032;-64
2021/01/30 08:53:32;;;;;;;6.80;5.75;;;3.30;86.60;;;;;;5103399;28;20051;-64
2021/01/30 08:56:05;;;;;;;7.65;6.85;;;3.30;86.40;;;;;;5013076;28;20045;-64
2021/01/30 08:58:36;;;;;;;6.80;6.10;;;3.40;86.30;;;;;;5085142;28;20507;-66
2021/01/30 09:01:13;;;;;;;7.70;6.95;;;3.40;86.20;;;;;;5104410;28;20028;-67
2021/01/30 09:03:48;;;;;;;7.78;6.95;;;3.30;86.20;;;;;;5114149;28;20460;-65
2021/01/30 09:06:39;;;;;;;8.23;6.53;;;3.40;86.50;;;;;;5093751;28;20016;-66
2021/01/30 09:09:19;;;;;;;7.70;6.80;;;3.40;86.30;;;;;;5094609;28;20031;-66
2021/01/30 09:11:49;;;;;;;7.60;6.82;;;3.50;86.10;;;;;;5100890;28;20051;-65
2021/01/30 09:14:14;;;;;;;7.50;6.80;;;3.50;86.00;;;;;;5114790;28;20062;-66
2021/01/30 09:17:06;;;;;;;7.90;7.05;;;3.50;85.80;;;;;;5114449;28;20055;-65
2021/01/30 09:20:06;;;;;;;7.75;7.03;;;3.50;85.40;;;;;;5098567;28;20048;-64
2021/01/30 09:22:52;;;;;;;7.68;6.88;;;3.50;85.50;;;;;;5114391;28;20027;-65
2021/01/30 09:25:44;;;;;;;6.57;5.78;;;3.50;85.20;;;;;;5114816;28;20028;-64
2021/01/30 09:28:18;;;;;;;8.13;6.90;;;3.60;85.40;;;;;;5112302;28;20042;-63
2021/01/30 09:30:50;;;;;;;7.05;6.35;;;3.60;85.20;;;;;;5114585;28;20038;-68
2021/01/30 09:33:26;;;;;;;7.93;6.28;;;3.60;85.00;;;;;;5114029;28;20024;-69
2021/01/30 09:36:15;;;;;;;7.65;6.72;;;3.70;85.00;;;;;;5096396;28;20023;-69
2021/01/30 09:38:47;;;;;;;7.22;6.53;;;3.70;84.50;;;;;;5112145;28;20065;-69
2021/01/30 09:41:22;;;;;;;7.32;6.50;;;3.80;84.00;;;;;;5113740;28;20117;-68
2021/01/30 09:43:48;;;;;;;7.57;6.78;;;3.80;83.50;;;;;;5104696;28;20501;-68
2021/01/30 09:46:22;;;;;;;7.78;6.28;;;3.80;84.00;;;;;;5075660;28;20067;-65
2021/01/30 09:48:49;;;;;;;8.00;6.82;;;3.90;83.90;;;;;;5075298;28;20027;-68
2021/01/30 09:51:15;;;;;;;6.88;6.18;;;3.90;84.00;;;;;;5093867;28;20024;-68
2021/01/30 09:53:51;;;;;;;8.35;6.75;;;3.90;83.70;;;;;;5094386;28;20503;-66
2021/01/30 09:56:18;;;;;;;7.53;6.72;;;3.90;83.80;;;;;;5093233;28;20058;-67
2021/01/30 09:58:50;;;;;;;7.93;7.07;;;4.00;83.80;;;;;;5093527;28;20093;-67
2021/01/30 10:01:19;;;;;;;;;;;4.00;83.70;;;;;;5093389;28;20764;-67
2021/01/30 10:03:44;;;;;;;8.60;6.55;;;4.10;83.90;;;;;;5093649;28;19955;-68
2021/01/30 10:06:32;;;;;;;7.10;5.93;;;4.10;83.10;;;;;;5094384;28;20035;-69
2021/01/30 10:09:26;;;;;;;8.40;6.53;;;4.00;82.80;;;;;;5092331;28;20044;-67
2021/01/30 10:11:55;;;;;;;6.82;6.13;;;4.00;83.20;;;;;;5093594;28;20077;-65
2021/01/30 10:14:23;;;;;;;7.43;6.63;;;4.00;83.50;;;;;;5092885;28;20020;-64
2021/01/30 10:16:58;;;;;;;6.47;5.88;;;4.00;83.70;;;;;;5092780;28;20028;-67
2021/01/30 10:19:27;;;;;;;6.63;5.93;;;4.00;83.70;;;;;;5099761;28;20042;-65
2021/01/30 10:21:53;;;;;;;7.38;6.55;;;4.00;83.90;;;;;;5113714;28;20032;-68
2021/01/30 10:24:30;;;;;;;7.20;6.50;;;3.90;83.60;;;;;;5112747;28;20024;-69
2021/01/30 10:27:12;;;;;;;8.23;6.97;;;3.90;83.70;;;;;;5113443;28;20052;-69
2021/01/30 10:29:38;;;;;;;7.07;6.20;;;4.00;84.30;;;;;;5110815;28;20029;-67
2021/01/30 10:32:15;;;;;;;7.30;6.32;;;4.10;84.40;;;;;;5100230;28;20024;-70
2021/01/30 10:34:49;;;;;;;8.43;7.00;;;4.10;83.70;;;;;;5109940;28;20059;-70
2021/01/30 10:37:19;;;;;;;8.27;6.05;;;4.20;83.50;;;;;;5103709;28;20407;-67
2021/01/30 10:39:50;;;;;;;6.82;6.15;;;4.30;83.50;;;;;;5092648;28;20447;-67
2021/01/30 10:42:24;;;;;;;6.95;6.28;;;4.30;83.20;;;;;;5094477;27;20124;-68
2021/01/30 10:44:58;;;;;;;7.32;6.40;;;4.40;82.90;;;;;;5104292;28;20376;-68
2021/01/30 10:47:25;;;;;;;6.63;5.88;;;4.40;82.80;;;;;;5104426;28;20104;-69
2021/01/30 10:50:06;;;;;;;8.23;6.03;;;4.50;82.30;;;;;;5074626;28;20055;-69
2021/01/30 10:52:31;;;;;;;6.40;5.80;;;4.60;82.10;;;;;;5107685;28;20027;-70
2021/01/30 10:55:36;;;;;;;7.25;6.53;;;4.60;81.50;;;;;;5104635;28;20031;-68
2021/01/30 10:58:41;;;;;;;7.50;6.75;;;4.70;82.00;;;;;;5107295;28;20027;-70
2021/01/30 11:01:29;;;;;;;8.18;6.57;;;4.80;82.00;;;;;;5029531;28;20434;-68
2021/01/30 11:03:56;;;;;;;6.65;6.05;;;5.00;81.80;;;;;;5010061;28;20174;-71
2021/01/30 11:06:49;;;;;;;6.65;5.95;;;5.10;81.20;;;;;;5060494;28;20060;-67
2021/01/30 11:09:24;;;;;;;6.90;6.18;;;5.10;80.40;;;;;;5091635;28;20024;-69
2021/01/30 11:11:53;;;;;;;7.25;6.60;;;5.10;80.10;;;;;;5106325;28;20488;-69
2021/01/30 11:14:31;;;;;;;7.45;6.72;;;5.20;80.50;;;;;;5111551;28;20016;-69
2021/01/30 11:16:57;;;;;;;7.22;6.53;;;5.20;80.10;;;;;;5102820;28;20488;-68
2021/01/30 11:19:31;;;;;;;7.18;6.57;;;5.30;80.20;;;;;;5101101;28;20093;-69
2021/01/30 11:22:20;;;;;;;7.25;6.53;;;5.30;80.10;;;;;;5092007;28;20481;-68
2021/01/30 11:24:50;;;;;;;6.65;5.75;;;5.30;80.10;;;;;;5092334;28;20028;-68
2021/01/30 11:27:30;;;;;;;7.28;6.57;;;5.40;80.00;;;;;;5075547;28;20526;-68
2021/01/30 11:29:56;;;;;;;7.20;6.50;;;5.40;79.30;;;;;;5110043;28;20051;-72
2021/01/30 11:32:24;;;;;;;7.50;6.80;;;5.50;79.20;;;;;;5109863;28;20056;-68
2021/01/30 11:34:56;;;;;;;7.20;6.50;;;5.40;79.30;;;;;;5092262;28;20027;-69
2021/01/30 11:37:23;;;;;;;7.43;6.72;;;5.50;79.50;;;;;;5103581;28;20031;-70
2021/01/30 11:39:49;;;;;;;7.30;6.60;;;5.50;79.90;;;;;;5090750;28;20127;-68
2021/01/30 11:42:14;;;;;;;7.30;6.60;;;5.60;78.80;;;;;;5091852;28;20501;-67
2021/01/30 11:44:40;;;;;;;7.78;6.97;;;5.70;79.00;;;;;;5091853;28;20176;-66
2021/01/30 11:47:06;;;;;;;7.82;7.10;;;5.70;78.50;;;;;;5100977;28;20525;-66
2021/01/30 11:49:31;;;;;;;8.23;7.13;;;5.80;78.50;;;;;;5097681;28;20471;-66
2021/01/30 11:51:57;;;;;;;7.70;7.00;;;5.80;77.70;;;;;;5073400;28;20013;-66
2021/01/30 11:54:22;;;;;;;8.73;7.32;;;5.80;78.20;;;;;;5091159;28;20443;-65
2021/01/30 11:56:48;;;;;;;8.95;8.02;;;5.90;77.10;;;;;;5091893;28;20066;-67
2021/01/30 11:59:14;;;;;;;8.40;7.50;;;5.80;77.40;;;;;;5105972;28;20384;-65
2021/01/30 12:01:40;;;;;;;8.95;7.53;;;5.80;77.50;;;;;;5114965;28;20088;-67
2021/01/30 12:04:07;;;;;;;7.95;7.15;;;5.90;77.70;;;;;;5115846;28;20111;-66
2021/01/30 12:06:32;;;;;;;8.18;7.38;;;5.80;77.30;;;;;;5089238;28;20028;-66
2021/01/30 12:08:58;;;;;;;7.88;7.07;;;5.70;77.30;;;;;;5094638;28;20024;-67
2021/01/30 12:11:24;;;;;;;8.30;7.00;;;5.80;78.00;;;;;;5094969;28;20460;-67
2021/01/30 12:13:50;;;;;;;8.00;7.20;;;5.90;78.00;;;;;;5095195;28;20206;-66
2021/01/30 12:16:17;;;;;;;7.35;6.65;;;5.90;77.60;;;;;;5096470;28;20012;-66
2021/01/30 12:18:43;;;;;;;8.93;7.32;;;5.90;77.70;;;;;;5097923;28;20062;-67
2021/01/30 12:21:08;;;;;;;10.40;7.30;;;5.80;77.20;;;;;;5095092;28;20472;-67
2021/01/30 12:23:34;;;;;;;8.15;6.95;;;5.70;77.20;;;;;;5093742;28;20514;-67
2021/01/30 12:26:00;;;;;;;7.85;7.10;;;5.70;77.60;;;;;;5096064;28;20035;-66
2021/01/30 12:28:32;;;;;;;8.55;7.65;;;5.70;77.90;;;;;;5076229;28;20020;-67
2021/01/30 12:30:57;;;;;;;7.40;6.70;;;5.70;78.00;;;;;;5098135;27;20477;-71
2021/01/30 12:33:23;;;;;;;7.32;6.38;;;5.60;77.60;;;;;;5094753;28;20099;-72
2021/01/30 12:35:49;;;;;;;7.57;6.78;;;5.60;77.80;;;;;;5094896;27;20448;-69
2021/01/30 12:38:15;;;;;;;8.23;7.43;;;5.60;78.40;;;;;;5134993;27;20100;-71
2021/01/30 12:40:45;;;;;;;7.82;7.03;;;5.60;78.60;;;;;;5135185;27;20106;-72
2021/01/30 12:43:12;;;;;;;8.07;7.28;;;5.60;77.90;;;;;;5134222;27;20016;-70
2021/01/30 12:45:38;;;;;;;7.53;6.78;;;5.60;78.10;;;;;;5129629;27;20035;-69
2021/01/30 12:48:04;;;;;;;7.57;6.75;;;5.60;77.90;;;;;;5114331;28;20015;-69
2021/01/30 12:50:31;;;;;;;9.70;7.25;;;5.60;78.00;;;;;;5093596;28;20028;-69
2021/01/30 12:52:57;;;;;;;8.40;7.00;;;5.60;78.00;;;;;;5075843;28;20065;-68
2021/01/30 12:55:22;;;;;;;8.35;6.95;;;5.70;78.30;;;;;;5094296;28;20020;-66
2021/01/30 12:57:48;;;;;;;9.60;7.32;;;5.70;78.30;;;;;;5093574;28;20516;-67
2021/01/30 13:00:20;;;;;;;8.25;7.18;;;5.80;78.40;;;;;;5075620;28;20028;-67
2021/01/30 13:02:45;;;;;;;9.07;7.63;;;5.80;78.20;;;;;;5093920;28;20027;-68
2021/01/30 13:05:12;;;;;;;8.18;7.38;;;5.80;77.90;;;;;;5104470;28;20031;-67
2021/01/30 13:07:38;;;;;;;9.10;7.97;;;5.80;77.90;;;;;;5114495;28;20034;-67
2021/01/30 13:10:09;;;;;;;8.20;7.18;;;5.80;78.40;;;;;;5113691;28;20019;-67
2021/01/30 13:12:35;;;;;;;7.88;7.07;;;5.80;78.50;;;;;;5113549;28;20034;-67
2021/01/30 13:15:00;;;;;;;7.40;6.53;;;5.80;77.90;;;;;;5112614;28;20019;-67
2021/01/30 13:17:26;;;;;;;8.52;7.65;;;5.80;77.50;;;;;;5093796;28;20030;-67
2021/01/30 13:19:52;;;;;;;9.60;7.45;;;5.80;77.60;;;;;;5092739;28;20055;-68
2021/01/30 13:22:23;;;;;;;8.77;7.47;;;5.80;78.10;;;;;;5093517;28;20097;-67
2021/01/30 13:24:48;;;;;;;8.30;7.00;;;5.80;78.60;;;;;;5093961;28;20077;-66